sensor_id;sensor_type;location;lat;lon;timestamp;pressure;altitude;pressure_sealevel;temperature;humidity
11888;BME280;6003;42.756;23.130;2023-02-26T00:02:26;155397.16;;;11.59;70.22
11888;BME280;6003;42.756;23.130;2023-02-26T00:04:53;155402.47;;;11.61;69.57
11888;BME280;6003;42.756;23.130;2023-02-26T00:07:20;155410.41;;;11.64;69.40
11888;BME280;6003;42.756;23.130;2023-02-26T00:09:47;155395.84;;;11.59;69.29
11888;BME280;6003;42.756;23.130;2023-02-26T00:12:14;155405.09;;;11.62;69.16
11888;BME280;6003;42.756;23.130;2023-02-26T00:14:41;155397.16;;;11.59;69.37
11888;BME280;6003;42.756;23.130;2023-02-26T00:17:28;155428.94;;;11.71;68.83
11888;BME280;6003;42.756;23.130;2023-02-26T00:19:57;155390.59;;;11.57;69.44
11888;BME280;6003;42.756;23.130;2023-02-26T00:22:24;155377.34;;;11.51;69.02
11888;BME280;6003;42.756;23.130;2023-02-26T00:24:51;155381.28;;;11.53;69.24
11888;BME280;6003;42.756;23.130;2023-02-26T00:27:18;155378.66;;;11.52;69.33
11888;BME280;6003;42.756;23.130;2023-02-26T00:29:46;155358.81;;;11.44;69.32
11888;BME280;6003;42.756;23.130;2023-02-26T00:32:13;155357.50;;;11.44;69.16
11888;BME280;6003;42.756;23.130;2023-02-26T00:34:44;155376.03;;;11.51;69.30
11888;BME280;6003;42.756;23.130;2023-02-26T00:37:21;155383.97;;;11.54;69.15
11888;BME280;6003;42.756;23.130;2023-02-26T00:40:02;155350.88;;;11.41;69.61
11888;BME280;6003;42.756;23.130;2023-02-26T00:42:33;155360.13;;;11.45;69.11
11888;BME280;6003;42.756;23.130;2023-02-26T00:45:01;155361.50;;;11.45;69.10
11888;BME280;6003;42.756;23.130;2023-02-26T00:47:30;155341.63;;;11.38;68.95
11888;BME280;6003;42.756;23.130;2023-02-26T00:50:14;155353.56;;;11.42;69.33
11888;BME280;6003;42.756;23.130;2023-02-26T00:52:49;155344.25;;;11.39;69.37
11888;BME280;6003;42.756;23.130;2023-02-26T00:55:18;155346.94;;;11.40;69.50
11888;BME280;6003;42.756;23.130;2023-02-26T00:57:45;155312.53;;;11.26;70.15
11888;BME280;6003;42.756;23.130;2023-02-26T01:00:13;155325.75;;;11.32;69.95
11888;BME280;6003;42.756;23.130;2023-02-26T01:02:40;155319.16;;;11.29;69.82
11888;BME280;6003;42.756;23.130;2023-02-26T01:05:10;155308.59;;;11.25;69.69
11888;BME280;6003;42.756;23.130;2023-02-26T01:07:40;155324.44;;;11.31;69.62
11888;BME280;6003;42.756;23.130;2023-02-26T01:10:11;155324.44;;;11.31;69.58
11888;BME280;6003;42.756;23.130;2023-02-26T01:12:38;155305.91;;;11.24;70.21
11888;BME280;6003;42.756;23.130;2023-02-26T01:15:07;155294.03;;;11.19;70.03
11888;BME280;6003;42.756;23.130;2023-02-26T01:17:39;155286.06;;;11.16;69.75
11888;BME280;6003;42.756;23.130;2023-02-26T01:20:16;155296.66;;;11.20;68.92
11888;BME280;6003;42.756;23.130;2023-02-26T01:23:07;155291.34;;;11.18;69.01
11888;BME280;6003;42.756;23.130;2023-02-26T01:25:38;155294.03;;;11.19;68.85
11888;BME280;6003;42.756;23.130;2023-02-26T01:28:07;155295.34;;;11.20;68.45
11888;BME280;6003;42.756;23.130;2023-02-26T01:30:35;155307.22;;;11.24;68.04
11888;BME280;6003;42.756;23.130;2023-02-26T01:33:08;155317.84;;;11.28;67.63
11888;BME280;6003;42.756;23.130;2023-02-26T01:35:41;155309.91;;;11.25;67.62
11888;BME280;6003;42.756;23.130;2023-02-26T01:38:17;155323.09;;;11.30;67.45
11888;BME280;6003;42.756;23.130;2023-02-26T01:41:22;155323.09;;;11.30;67.63
11888;BME280;6003;42.756;23.130;2023-02-26T01:43:59;155333.69;;;11.35;67.46
11888;BME280;6003;42.756;23.130;2023-02-26T01:46:34;155320.47;;;11.29;67.28
11888;BME280;6003;42.756;23.130;2023-02-26T01:49:04;155315.16;;;11.27;67.28
11888;BME280;6003;42.756;23.130;2023-02-26T01:51:47;155315.16;;;11.27;67.26
11888;BME280;6003;42.756;23.130;2023-02-26T01:54:16;155309.91;;;11.25;67.30
11888;BME280;6003;42.756;23.130;2023-02-26T01:56:46;155325.75;;;11.32;66.96
11888;BME280;6003;42.756;23.130;2023-02-26T01:59:15;155328.38;;;11.33;66.78
11888;BME280;6003;42.756;23.130;2023-02-26T02:01:48;155323.09;;;11.30;66.45
11888;BME280;6003;42.756;23.130;2023-02-26T02:04:16;155339.00;;;11.37;66.17
11888;BME280;6003;42.756;23.130;2023-02-26T02:06:43;155315.16;;;11.27;66.52
11888;BME280;6003;42.756;23.130;2023-02-26T02:09:12;155325.75;;;11.32;65.82
11888;BME280;6003;42.756;23.130;2023-02-26T02:11:53;155294.03;;;11.19;66.22
11888;BME280;6003;42.756;23.130;2023-02-26T02:14:30;155309.91;;;11.25;65.89
11888;BME280;6003;42.756;23.130;2023-02-26T02:17:10;155316.53;;;11.28;65.63
11888;BME280;6003;42.756;23.130;2023-02-26T02:19:53;155316.53;;;11.28;65.55
11888;BME280;6003;42.756;23.130;2023-02-26T02:22:34;155309.91;;;11.25;65.40
11888;BME280;6003;42.756;23.130;2023-02-26T02:25:18;155312.53;;;11.26;65.17
11888;BME280;6003;42.756;23.130;2023-02-26T02:27:56;155294.03;;;11.19;65.35
11888;BME280;6003;42.756;23.130;2023-02-26T02:30:34;155299.28;;;11.21;65.08
11888;BME280;6003;42.756;23.130;2023-02-26T02:33:10;155307.22;;;11.24;64.83
11888;BME280;6003;42.756;23.130;2023-02-26T02:35:42;155290.03;;;11.18;64.98
11888;BME280;6003;42.756;23.130;2023-02-26T02:38:14;155315.16;;;11.27;64.66
11888;BME280;6003;42.756;23.130;2023-02-26T02:40:45;155301.97;;;11.22;64.21
11888;BME280;6003;42.756;23.130;2023-02-26T02:43:14;155294.03;;;11.19;64.29
11888;BME280;6003;42.756;23.130;2023-02-26T02:45:44;155288.72;;;11.17;64.05
11888;BME280;6003;42.756;23.130;2023-02-26T02:48:19;155288.72;;;11.17;64.03
11888;BME280;6003;42.756;23.130;2023-02-26T02:50:50;155307.22;;;11.24;63.56
11888;BME280;6003;42.756;23.130;2023-02-26T02:53:20;155282.13;;;11.15;64.22
11888;BME280;6003;42.756;23.130;2023-02-26T02:55:53;155287.41;;;11.17;63.58
11888;BME280;6003;42.756;23.130;2023-02-26T02:58:25;155294.03;;;11.19;63.75
11888;BME280;6003;42.756;23.130;2023-02-26T03:00:58;155305.91;;;11.24;63.33
11888;BME280;6003;42.756;23.130;2023-02-26T03:03:32;155270.19;;;11.10;63.81
11888;BME280;6003;42.756;23.130;2023-02-26T03:06:00;155280.81;;;11.14;64.23
11888;BME280;6003;42.756;23.130;2023-02-26T03:08:31;155267.56;;;11.09;63.97
11888;BME280;6003;42.756;23.130;2023-02-26T03:10:59;155245.09;;;11.00;63.68
11888;BME280;6003;42.756;23.130;2023-02-26T03:13:26;155246.41;;;11.01;63.87
11888;BME280;6003;42.756;23.130;2023-02-26T03:16:00;155251.72;;;11.03;63.69
11888;BME280;6003;42.756;23.130;2023-02-26T03:18:42;155272.88;;;11.11;63.19
11888;BME280;6003;42.756;23.130;2023-02-26T03:21:19;155271.56;;;11.11;63.01
11888;BME280;6003;42.756;23.130;2023-02-26T03:23:52;155288.72;;;11.17;62.84
11888;BME280;6003;42.756;23.130;2023-02-26T03:26:25;155308.59;;;11.25;62.63
11888;BME280;6003;42.756;23.130;2023-02-26T03:28:59;155303.28;;;11.23;61.69
11888;BME280;6003;42.756;23.130;2023-02-26T03:31:30;155284.75;;;11.16;61.88
11888;BME280;6003;42.756;23.130;2023-02-26T03:34:05;155279.50;;;11.14;61.65
11888;BME280;6003;42.756;23.130;2023-02-26T03:36:36;155288.72;;;11.17;61.15
11888;BME280;6003;42.756;23.130;2023-02-26T03:39:10;155264.94;;;11.08;61.73
11888;BME280;6003;42.756;23.130;2023-02-26T03:41:41;155262.25;;;11.07;61.28
11888;BME280;6003;42.756;23.130;2023-02-26T03:44:13;155270.19;;;11.10;61.22
11888;BME280;6003;42.756;23.130;2023-02-26T03:46:46;155264.94;;;11.08;61.01
11888;BME280;6003;42.756;23.130;2023-02-26T03:49:20;155280.81;;;11.14;60.65
11888;BME280;6003;42.756;23.130;2023-02-26T03:51:49;155291.34;;;11.18;61.00
11888;BME280;6003;42.756;23.130;2023-02-26T03:54:20;155278.13;;;11.13;60.96
11888;BME280;6003;42.756;23.130;2023-02-26T03:56:48;155286.06;;;11.16;61.17
11888;BME280;6003;42.756;23.130;2023-02-26T03:59:16;155275.50;;;11.12;60.74
11888;BME280;6003;42.756;23.130;2023-02-26T04:01:48;155317.84;;;11.28;60.33
11888;BME280;6003;42.756;23.130;2023-02-26T04:04:21;155336.31;;;11.36;60.36
11888;BME280;6003;42.756;23.130;2023-02-26T04:06:50;155336.31;;;11.36;60.49
11888;BME280;6003;42.756;23.130;2023-02-26T04:09:18;155336.31;;;11.36;60.57
11888;BME280;6003;42.756;23.130;2023-02-26T04:11:46;155328.38;;;11.33;60.86
11888;BME280;6003;42.756;23.130;2023-02-26T04:14:14;155336.31;;;11.36;60.52
11888;BME280;6003;42.756;23.130;2023-02-26T04:16:41;155321.78;;;11.30;61.01
11888;BME280;6003;42.756;23.130;2023-02-26T04:19:09;155344.25;;;11.39;60.62
11888;BME280;6003;42.756;23.130;2023-02-26T04:21:37;155360.13;;;11.45;61.09
11888;BME280;6003;42.756;23.130;2023-02-26T04:24:04;155350.88;;;11.41;60.93
11888;BME280;6003;42.756;23.130;2023-02-26T04:26:31;155320.47;;;11.29;61.16
11888;BME280;6003;42.756;23.130;2023-02-26T04:28:58;155341.63;;;11.38;61.47
11888;BME280;6003;42.756;23.130;2023-02-26T04:31:25;155327.06;;;11.32;61.97
11888;BME280;6003;42.756;23.130;2023-02-26T04:33:52;155312.53;;;11.26;61.67
11888;BME280;6003;42.756;23.130;2023-02-26T04:36:19;155329.69;;;11.33;61.57
11888;BME280;6003;42.756;23.130;2023-02-26T04:38:47;155325.75;;;11.32;61.80
11888;BME280;6003;42.756;23.130;2023-02-26T04:41:14;155328.38;;;11.33;61.75
11888;BME280;6003;42.756;23.130;2023-02-26T04:43:40;155328.38;;;11.33;61.14
11888;BME280;6003;42.756;23.130;2023-02-26T04:46:07;155362.81;;;11.46;60.79
11888;BME280;6003;42.756;23.130;2023-02-26T04:48:34;155350.88;;;11.41;60.69
11888;BME280;6003;42.756;23.130;2023-02-26T04:51:01;155373.34;;;11.50;60.28
11888;BME280;6003;42.756;23.130;2023-02-26T04:53:27;155403.78;;;11.62;59.28
11888;BME280;6003;42.756;23.130;2023-02-26T04:55:56;155394.53;;;11.58;59.77
11888;BME280;6003;42.756;23.130;2023-02-26T04:58:22;155402.47;;;11.61;58.78
11888;BME280;6003;42.756;23.130;2023-02-26T05:00:50;155423.63;;;11.69;58.94
11888;BME280;6003;42.756;23.130;2023-02-26T05:06:25;155422.31;;;11.69;59.08
11888;BME280;6003;42.756;23.130;2023-02-26T05:08:52;155432.88;;;11.73;58.79
11888;BME280;6003;42.756;23.130;2023-02-26T05:11:20;155443.50;;;11.77;59.33
11888;BME280;6003;42.756;23.130;2023-02-26T05:13:47;155423.63;;;11.69;59.16
11888;BME280;6003;42.756;23.130;2023-02-26T05:16:14;155446.13;;;11.78;58.66
11888;BME280;6003;42.756;23.130;2023-02-26T05:18:41;155436.88;;;11.74;58.89
11888;BME280;6003;42.756;23.130;2023-02-26T05:21:08;155448.75;;;11.79;58.62
11888;BME280;6003;42.756;23.130;2023-02-26T05:23:34;155444.81;;;11.78;58.52
11888;BME280;6003;42.756;23.130;2023-02-26T05:26:01;155452.75;;;11.81;58.01
11888;BME280;6003;42.756;23.130;2023-02-26T05:28:30;155462.00;;;11.84;58.29
11888;BME280;6003;42.756;23.130;2023-02-26T05:30:58;155459.38;;;11.83;58.11
11888;BME280;6003;42.756;23.130;2023-02-26T05:33:25;155434.19;;;11.73;58.72
11888;BME280;6003;42.756;23.130;2023-02-26T05:35:52;155450.13;;;11.80;58.38
11888;BME280;6003;42.756;23.130;2023-02-26T05:38:19;155434.19;;;11.73;58.97
11888;BME280;6003;42.756;23.130;2023-02-26T05:40:45;155451.44;;;11.80;58.56
11888;BME280;6003;42.756;23.130;2023-02-26T05:43:12;155458.06;;;11.83;58.46
11888;BME280;6003;42.756;23.130;2023-02-26T05:45:41;155484.53;;;11.93;58.43
11888;BME280;6003;42.756;23.130;2023-02-26T05:48:07;155476.59;;;11.90;58.78
11888;BME280;6003;42.756;23.130;2023-02-26T05:50:35;155483.22;;;11.92;58.55
11888;BME280;6003;42.756;23.130;2023-02-26T05:53:02;155507.03;;;12.02;58.06
11888;BME280;6003;42.756;23.130;2023-02-26T05:55:29;155508.34;;;12.02;57.71
11888;BME280;6003;42.756;23.130;2023-02-26T05:57:56;155513.66;;;12.04;58.18
11888;BME280;6003;42.756;23.130;2023-02-26T06:00:23;155514.97;;;12.05;57.90
11888;BME280;6003;42.756;23.130;2023-02-26T06:02:51;155530.84;;;12.11;57.95
11888;BME280;6003;42.756;23.130;2023-02-26T06:05:18;155553.34;;;12.19;57.56
11888;BME280;6003;42.756;23.130;2023-02-26T06:07:45;155565.28;;;12.24;57.37
11888;BME280;6003;42.756;23.130;2023-02-26T06:10:12;155578.53;;;12.29;57.48
11888;BME280;6003;42.756;23.130;2023-02-26T06:12:39;155606.34;;;12.40;57.83
11888;BME280;6003;42.756;23.130;2023-02-26T06:15:07;155619.53;;;12.45;57.32
11888;BME280;6003;42.756;23.130;2023-02-26T06:17:34;155616.91;;;12.44;57.90
11888;BME280;6003;42.756;23.130;2023-02-26T06:20:03;155642.03;;;12.54;58.06
11888;BME280;6003;42.756;23.130;2023-02-26T06:22:31;155632.78;;;12.50;58.05
11888;BME280;6003;42.756;23.130;2023-02-26T06:24:57;155661.91;;;12.61;56.94
11888;BME280;6003;42.756;23.130;2023-02-26T06:27:24;155681.78;;;12.69;56.77
11888;BME280;6003;42.756;23.130;2023-02-26T06:29:51;155694.97;;;12.74;56.64
11888;BME280;6003;42.756;23.130;2023-02-26T06:32:18;155702.94;;;12.77;55.83
11888;BME280;6003;42.756;23.130;2023-02-26T06:34:45;155717.50;;;12.83;56.47
11888;BME280;6003;42.756;23.130;2023-02-26T06:37:14;155714.88;;;12.82;56.41
11888;BME280;6003;42.756;23.130;2023-02-26T06:39:41;155754.56;;;12.97;54.62
11888;BME280;6003;42.756;23.130;2023-02-26T06:42:07;155744.00;;;12.93;55.69
11888;BME280;6003;42.756;23.130;2023-02-26T06:44:35;155745.31;;;12.94;54.23
11888;BME280;6003;42.756;23.130;2023-02-26T06:47:02;155785.06;;;13.09;53.50
11888;BME280;6003;42.756;23.130;2023-02-26T06:49:28;155786.38;;;13.09;52.94
11888;BME280;6003;42.756;23.130;2023-02-26T06:51:55;155807.59;;;13.18;53.04
11888;BME280;6003;42.756;23.130;2023-02-26T06:54:23;155812.84;;;13.20;52.93
11888;BME280;6003;42.756;23.130;2023-02-26T06:56:50;155839.41;;;13.30;52.44
11888;BME280;6003;42.756;23.130;2023-02-26T06:59:17;155847.38;;;13.33;52.45
11888;BME280;6003;42.756;23.130;2023-02-26T07:01:44;155883.13;;;13.47;51.25
11888;BME280;6003;42.756;23.130;2023-02-26T07:04:11;155892.41;;;13.50;51.58
11888;BME280;6003;42.756;23.130;2023-02-26T07:06:37;155875.19;;;13.44;51.44
11888;BME280;6003;42.756;23.130;2023-02-26T07:09:04;155868.56;;;13.41;51.10
11888;BME280;6003;42.756;23.130;2023-02-26T07:11:32;155896.34;;;13.52;50.92
11888;BME280;6003;42.756;23.130;2023-02-26T07:13:59;155899.03;;;13.53;50.62
11888;BME280;6003;42.756;23.130;2023-02-26T07:16:26;155902.97;;;13.54;51.03
11888;BME280;6003;42.756;23.130;2023-02-26T07:18:53;155937.44;;;13.68;50.83
11888;BME280;6003;42.756;23.130;2023-02-26T07:21:20;155942.75;;;13.70;50.14
11888;BME280;6003;42.756;23.130;2023-02-26T07:23:46;155963.91;;;13.78;50.24
11888;BME280;6003;42.756;23.130;2023-02-26T07:26:13;156019.59;;;13.99;50.54
11888;BME280;6003;42.756;23.130;2023-02-26T07:28:43;156055.41;;;14.13;50.79
11888;BME280;6003;42.756;23.130;2023-02-26T07:31:11;156072.59;;;14.20;49.95
11888;BME280;6003;42.756;23.130;2023-02-26T07:33:38;156081.88;;;14.23;50.64
11888;BME280;6003;42.756;23.130;2023-02-26T07:36:05;156083.19;;;14.24;49.88
11888;BME280;6003;42.756;23.130;2023-02-26T07:38:32;156083.19;;;14.24;50.42
11888;BME280;6003;42.756;23.130;2023-02-26T07:40:59;156081.88;;;14.23;49.88
11888;BME280;6003;42.756;23.130;2023-02-26T07:43:26;156080.56;;;14.23;50.66
11888;BME280;6003;42.756;23.130;2023-02-26T07:45:54;156109.72;;;14.34;50.35
11888;BME280;6003;42.756;23.130;2023-02-26T07:48:21;156109.72;;;14.34;50.65
11888;BME280;6003;42.756;23.130;2023-02-26T07:50:50;156087.19;;;14.26;50.68
11888;BME280;6003;42.756;23.130;2023-02-26T07:53:17;156075.25;;;14.21;51.33
11888;BME280;6003;42.756;23.130;2023-02-26T07:55:44;156088.50;;;14.26;51.68
11888;BME280;6003;42.756;23.130;2023-02-26T07:58:11;156071.28;;;14.19;50.25
11888;BME280;6003;42.756;23.130;2023-02-26T08:00:38;156048.75;;;14.11;50.79
11888;BME280;6003;42.756;23.130;2023-02-26T08:03:12;156077.91;;;14.22;50.20
11888;BME280;6003;42.756;23.130;2023-02-26T08:05:40;156075.25;;;14.21;50.81
11888;BME280;6003;42.756;23.130;2023-02-26T08:08:06;156091.19;;;14.27;50.07
11888;BME280;6003;42.756;23.130;2023-02-26T08:10:33;156129.63;;;14.42;49.99
11888;BME280;6003;42.756;23.130;2023-02-26T08:13:00;156148.16;;;14.49;49.21
11888;BME280;6003;42.756;23.130;2023-02-26T08:15:27;156170.75;;;14.58;48.99
11888;BME280;6003;42.756;23.130;2023-02-26T08:17:54;156166.81;;;14.56;49.47
11888;BME280;6003;42.756;23.130;2023-02-26T08:20:22;156206.56;;;14.72;49.20
11888;BME280;6003;42.756;23.130;2023-02-26T08:23:03;156207.88;;;14.72;48.16
11888;BME280;6003;42.756;23.130;2023-02-26T08:25:30;156234.41;;;14.82;48.03
11888;BME280;6003;42.756;23.130;2023-02-26T08:27:57;156242.38;;;14.85;48.89
11888;BME280;6003;42.756;23.130;2023-02-26T08:30:24;156254.28;;;14.90;48.40
11888;BME280;6003;42.756;23.130;2023-02-26T08:32:50;156270.25;;;14.96;47.78
11888;BME280;6003;42.756;23.130;2023-02-26T08:35:17;156304.69;;;15.09;48.53
11888;BME280;6003;42.756;23.130;2023-02-26T08:37:45;156337.88;;;15.22;48.86
11888;BME280;6003;42.756;23.130;2023-02-26T08:40:13;156384.31;;;15.40;48.25
11888;BME280;6003;42.756;23.130;2023-02-26T08:42:39;156425.41;;;15.56;47.37
11888;BME280;6003;42.756;23.130;2023-02-26T08:45:07;156467.94;;;15.72;46.62
11888;BME280;6003;42.756;23.130;2023-02-26T08:47:34;156481.22;;;15.77;46.73
11888;BME280;6003;42.756;23.130;2023-02-26T08:50:02;156491.81;;;15.82;46.32
11888;BME280;6003;42.756;23.130;2023-02-26T08:52:31;156491.81;;;15.82;46.01
11888;BME280;6003;42.756;23.130;2023-02-26T08:54:59;156490.50;;;15.81;46.32
11888;BME280;6003;42.756;23.130;2023-02-26T08:57:26;156499.75;;;15.85;45.67
11888;BME280;6003;42.756;23.130;2023-02-26T08:59:53;156502.44;;;15.86;45.78
11888;BME280;6003;42.756;23.130;2023-02-26T09:02:20;156481.22;;;15.77;45.72
11888;BME280;6003;42.756;23.130;2023-02-26T09:04:47;156463.97;;;15.71;45.47
11888;BME280;6003;42.756;23.130;2023-02-26T09:07:14;156446.63;;;15.64;46.78
11888;BME280;6003;42.756;23.130;2023-02-26T09:09:40;156513.03;;;15.90;47.29
11888;BME280;6003;42.756;23.130;2023-02-26T09:12:09;156542.25;;;16.01;46.16
11888;BME280;6003;42.756;23.130;2023-02-26T09:14:35;156600.66;;;16.23;45.77
11888;BME280;6003;42.756;23.130;2023-02-26T09:17:02;156643.13;;;16.40;45.77
11888;BME280;6003;42.756;23.130;2023-02-26T09:19:29;156615.28;;;16.29;45.64
11888;BME280;6003;42.756;23.130;2023-02-26T09:21:56;156597.97;;;16.22;45.70
11888;BME280;6003;42.756;23.130;2023-02-26T09:24:23;156651.13;;;16.43;46.01
11888;BME280;6003;42.756;23.130;2023-02-26T09:26:50;156682.97;;;16.55;44.67
11888;BME280;6003;42.756;23.130;2023-02-26T09:29:18;156685.63;;;16.56;44.94
11888;BME280;6003;42.756;23.130;2023-02-26T09:31:45;156744.09;;;16.79;44.57
11888;BME280;6003;42.756;23.130;2023-02-26T09:34:12;156746.75;;;16.80;43.17
11888;BME280;6003;42.756;23.130;2023-02-26T09:36:39;156821.13;;;17.08;44.72
11888;BME280;6003;42.756;23.130;2023-02-26T09:39:08;156822.44;;;17.09;42.98
11888;BME280;6003;42.756;23.130;2023-02-26T09:41:38;156870.28;;;17.27;43.56
11888;BME280;6003;42.756;23.130;2023-02-26T09:44:10;156907.50;;;17.42;41.93
11888;BME280;6003;42.756;23.130;2023-02-26T09:46:47;156895.53;;;17.37;42.90
11888;BME280;6003;42.756;23.130;2023-02-26T09:49:26;156874.25;;;17.29;42.53
11888;BME280;6003;42.756;23.130;2023-02-26T09:51:59;156903.47;;;17.40;42.83
11888;BME280;6003;42.756;23.130;2023-02-26T09:54:31;156914.16;;;17.44;42.50
11888;BME280;6003;42.756;23.130;2023-02-26T09:57:00;156939.38;;;17.54;42.84
11888;BME280;6003;42.756;23.130;2023-02-26T09:59:30;156954.00;;;17.59;42.52
11888;BME280;6003;42.756;23.130;2023-02-26T10:02:04;156942.00;;;17.55;42.93
11888;BME280;6003;42.756;23.130;2023-02-26T10:04:53;156906.19;;;17.41;42.54
11888;BME280;6003;42.756;23.130;2023-02-26T10:07:33;156906.19;;;17.41;42.62
11888;BME280;6003;42.756;23.130;2023-02-26T10:10:11;156895.53;;;17.37;42.86
11888;BME280;6003;42.756;23.130;2023-02-26T10:12:42;156894.19;;;17.36;42.88
11888;BME280;6003;42.756;23.130;2023-02-26T10:15:13;156908.81;;;17.42;42.56
11888;BME280;6003;42.756;23.130;2023-02-26T10:17:58;156900.84;;;17.39;42.39
11888;BME280;6003;42.756;23.130;2023-02-26T10:20:36;156890.25;;;17.35;43.04
11888;BME280;6003;42.756;23.130;2023-02-26T10:23:17;156919.41;;;17.46;42.73
11888;BME280;6003;42.756;23.130;2023-02-26T10:25:47;156935.41;;;17.52;42.09
11888;BME280;6003;42.756;23.130;2023-02-26T10:28:34;156923.44;;;17.48;43.00
11888;BME280;6003;42.756;23.130;2023-02-26T10:31:08;156919.41;;;17.46;42.84
11888;BME280;6003;42.756;23.130;2023-02-26T10:33:46;156923.44;;;17.48;43.55
11888;BME280;6003;42.756;23.130;2023-02-26T10:36:21;156950.03;;;17.58;43.30
11888;BME280;6003;42.756;23.130;2023-02-26T10:38:52;156831.78;;;17.12;43.28
11888;BME280;6003;42.756;23.130;2023-02-26T10:41:24;156718.84;;;16.69;44.55
11888;BME280;6003;42.756;23.130;2023-02-26T10:43:59;156708.19;;;16.65;44.80
11888;BME280;6003;42.756;23.130;2023-02-26T10:46:42;156766.69;;;16.87;45.54
11888;BME280;6003;42.756;23.130;2023-02-26T10:49:46;156839.75;;;17.16;44.82
11888;BME280;6003;42.756;23.130;2023-02-26T10:52:17;156850.34;;;17.20;44.62
11888;BME280;6003;42.756;23.130;2023-02-26T10:55:01;156815.84;;;17.06;44.87
11888;BME280;6003;42.756;23.130;2023-02-26T10:57:30;156790.56;;;16.97;44.81
11888;BME280;6003;42.756;23.130;2023-02-26T10:59:58;156669.69;;;16.50;45.71
11888;BME280;6003;42.756;23.130;2023-02-26T11:02:35;156668.38;;;16.50;45.86
11888;BME280;6003;42.756;23.130;2023-02-26T11:05:07;156643.13;;;16.40;46.52
11888;BME280;6003;42.756;23.130;2023-02-26T11:07:39;156667.06;;;16.49;46.25
11888;BME280;6003;42.756;23.130;2023-02-26T11:10:13;156667.06;;;16.49;47.62
11888;BME280;6003;42.756;23.130;2023-02-26T11:12:41;156700.22;;;16.62;46.60
11888;BME280;6003;42.756;23.130;2023-02-26T11:15:12;156701.53;;;16.62;46.50
11888;BME280;6003;42.756;23.130;2023-02-26T11:17:40;156671.00;;;16.51;46.71
11888;BME280;6003;42.756;23.130;2023-02-26T11:20:16;156680.28;;;16.54;46.22
11888;BME280;6003;42.756;23.130;2023-02-26T11:22:46;156625.88;;;16.33;47.38
11888;BME280;6003;42.756;23.130;2023-02-26T11:25:18;156596.66;;;16.22;47.00
11888;BME280;6003;42.756;23.130;2023-02-26T11:27:49;156558.19;;;16.07;46.80
11888;BME280;6003;42.756;23.130;2023-02-26T11:30:20;156563.50;;;16.09;47.78
11888;BME280;6003;42.756;23.130;2023-02-26T11:32:56;156555.53;;;16.06;48.32
11888;BME280;6003;42.756;23.130;2023-02-26T11:35:26;156542.25;;;16.01;47.94
11888;BME280;6003;42.756;23.130;2023-02-26T11:37:55;156551.53;;;16.05;48.29
11888;BME280;6003;42.756;23.130;2023-02-26T11:52:20;156619.22;;;16.31;48.37
11888;BME280;6003;42.756;23.130;2023-02-26T11:54:59;156558.19;;;16.07;48.11
11888;BME280;6003;42.756;23.130;2023-02-26T11:57:28;156513.03;;;15.90;49.63
11888;BME280;6003;42.756;23.130;2023-02-26T11:59:57;156454.59;;;15.67;49.60
11888;BME280;6003;42.756;23.130;2023-02-26T12:02:26;156402.84;;;15.47;49.64
11888;BME280;6003;42.756;23.130;2023-02-26T12:05:00;156396.22;;;15.45;50.21
11888;BME280;6003;42.756;23.130;2023-02-26T12:07:29;156406.84;;;15.49;49.54
11888;BME280;6003;42.756;23.130;2023-02-26T12:09:57;156396.22;;;15.45;50.40
11888;BME280;6003;42.756;23.130;2023-02-26T12:12:40;156404.22;;;15.48;50.90
11888;BME280;6003;42.756;23.130;2023-02-26T12:15:21;156413.50;;;15.51;50.54
11888;BME280;6003;42.756;23.130;2023-02-26T12:18:02;156396.22;;;15.45;50.17
11888;BME280;6003;42.756;23.130;2023-02-26T12:20:36;156397.56;;;15.45;50.28
11888;BME280;6003;42.756;23.130;2023-02-26T12:26:21;156422.78;;;15.55;50.45
11888;BME280;6003;42.756;23.130;2023-02-26T12:29:06;156397.56;;;15.45;49.95
11888;BME280;6003;42.756;23.130;2023-02-26T12:32:06;156377.66;;;15.38;49.70
11888;BME280;6003;42.756;23.130;2023-02-26T12:34:46;156408.16;;;15.49;50.34
11888;BME280;6003;42.756;23.130;2023-02-26T12:37:30;156425.41;;;15.56;49.92
11888;BME280;6003;42.756;23.130;2023-02-26T12:40:10;156454.59;;;15.67;49.73
11888;BME280;6003;42.756;23.130;2023-02-26T12:42:49;156515.69;;;15.91;50.57
11888;BME280;6003;42.756;23.130;2023-02-26T12:45:33;156531.66;;;15.97;49.33
11888;BME280;6003;42.756;23.130;2023-02-26T12:48:19;156526.34;;;15.95;49.49
11888;BME280;6003;42.756;23.130;2023-02-26T12:50:59;156558.19;;;16.07;49.84
11888;BME280;6003;42.756;23.130;2023-02-26T12:53:53;156544.88;;;16.02;48.63
11888;BME280;6003;42.756;23.130;2023-02-26T14:08:46;156332.56;;;15.20;48.80
11888;BME280;6003;42.756;23.130;2023-02-26T14:11:33;156313.97;;;15.13;49.30
11888;BME280;6003;42.756;23.130;2023-02-26T14:14:09;156308.69;;;15.11;48.48
11888;BME280;6003;42.756;23.130;2023-02-26T14:16:38;156263.59;;;14.94;48.92
11888;BME280;6003;42.756;23.130;2023-02-26T14:19:19;156263.59;;;14.94;49.89
11888;BME280;6003;42.756;23.130;2023-02-26T14:21:49;156226.47;;;14.79;49.91
11888;BME280;6003;42.756;23.130;2023-02-26T14:24:20;156203.94;;;14.71;51.18
11888;BME280;6003;42.756;23.130;2023-02-26T14:26:49;156205.25;;;14.71;49.99
11888;BME280;6003;42.756;23.130;2023-02-26T14:29:21;156199.94;;;14.69;50.65
11888;BME280;6003;42.756;23.130;2023-02-26T14:32:04;156195.97;;;14.68;49.98
11888;BME280;6003;42.756;23.130;2023-02-26T14:34:34;156144.22;;;14.48;50.64
11888;BME280;6003;42.756;23.130;2023-02-26T14:37:03;156157.47;;;14.53;51.56
11888;BME280;6003;42.756;23.130;2023-02-26T14:39:36;156136.25;;;14.44;51.17
11888;BME280;6003;42.756;23.130;2023-02-26T14:42:06;156109.72;;;14.34;51.96